Time;durP1;ratioP1;P1;durP2;ratioP2;P2;SDS_P1;SDS_P2;PMS_P1;PMS_P2;Temp;Humidity;BMP_temperature;BMP_pressure;BME280_temperature;BME280_humidity;BME280_pressure;Samples;Min_cycle;Max_cycle;Signal;HPM_P1;HPM_P2
2021/12/12 00:02:19;;;;;;;;;19.50;14.50;;;;;-143.39;100.00;63593.47;5020983;28;8821;-89
2021/12/12 00:04:47;;;;;;;;;14.75;12.00;;;;;-143.39;100.00;63593.47;5056631;28;8819;-88
2021/12/12 00:07:20;;;;;;;;;19.00;16.00;;;;;-143.39;100.00;63593.47;5049460;28;8820;-88
2021/12/12 00:09:49;;;;;;;;;20.00;17.00;;;;;-143.39;100.00;63593.47;5057048;28;8914;-88
2021/12/12 00:12:20;;;;;;;;;25.50;18.00;;;;;-143.39;100.00;63593.47;5057378;28;8807;-88
2021/12/12 00:14:45;;;;;;;;;23.50;17.50;;;;;-143.39;100.00;63593.47;5049131;28;8815;-87
2021/12/12 00:17:12;;;;;;;;;25.25;16.75;;;;;-143.39;100.00;63593.47;5053564;28;8827;-89
2021/12/12 00:19:39;;;;;;;;;21.00;15.50;;;;;-143.39;100.00;63593.47;5057065;28;8940;-88
2021/12/12 00:22:09;;;;;;;;;18.75;14.00;;;;;-143.39;100.00;63593.47;5055418;28;8807;-89
2021/12/12 00:24:38;;;;;;;;;19.00;15.25;;;;;-143.39;100.00;63593.47;5054906;28;8795;-88
2021/12/12 00:27:04;;;;;;;;;21.75;14.00;;;;;-143.39;100.00;63593.47;5056567;28;8778;-87
2021/12/12 00:29:30;;;;;;;;;24.75;18.75;;;;;-143.39;100.00;63593.47;5040485;28;8803;-87
2021/12/12 00:31:59;;;;;;;;;24.50;17.25;;;;;-143.39;100.00;63593.47;5058307;28;8830;-89
2021/12/12 00:34:28;;;;;;;;;20.75;16.00;;;;;-143.39;100.00;63593.47;5054853;28;8721;-87
2021/12/12 00:36:54;;;;;;;;;20.50;14.25;;;;;-143.39;100.00;63593.47;5047765;28;8788;-88
2021/12/12 00:39:26;;;;;;;;;20.50;19.25;;;;;-143.39;100.00;63593.47;5047130;28;8817;-88
2021/12/12 00:41:59;;;;;;;;;21.00;14.50;;;;;-143.39;100.00;63593.47;5039563;28;8877;-89
2021/12/12 00:44:26;;;;;;;;;26.25;17.50;;;;;-143.39;100.00;63593.47;5052363;28;8795;-88
2021/12/12 00:46:54;;;;;;;;;26.25;15.25;;;;;-143.39;100.00;63593.47;5052223;28;8799;-89
2021/12/12 00:49:21;;;;;;;;;14.75;9.75;;;;;-143.39;100.00;63593.47;5047031;28;8803;-88
2021/12/12 00:51:48;;;;;;;;;21.50;14.00;;;;;-143.39;100.00;63593.47;5053893;28;8920;-89
2021/12/12 00:54:15;;;;;;;;;17.50;13.75;;;;;-143.39;100.00;63593.47;5047604;28;8810;-87
2021/12/12 00:56:42;;;;;;;;;11.75;11.75;;;;;-143.39;100.00;63593.47;5047143;28;8793;-87
2021/12/12 00:59:07;;;;;;;;;22.75;16.00;;;;;-143.39;100.00;63593.47;5056660;28;8815;-88
2021/12/12 01:01:39;;;;;;;;;18.25;13.50;;;;;-143.39;100.00;63593.47;5039938;28;8811;-89
2021/12/12 01:04:16;;;;;;;;;15.75;12.50;;;;;-143.39;100.00;63593.47;5029161;28;8928;-89
2021/12/12 01:06:42;;;;;;;;;18.25;14.50;;;;;-143.39;100.00;63593.47;5019789;28;8809;-89
2021/12/12 01:09:14;;;;;;;;;12.00;12.00;;;;;-143.39;100.00;63593.47;5038331;28;8809;-89
2021/12/12 01:11:44;;;;;;;;;12.00;12.00;;;;;-143.39;100.00;63593.47;5045213;28;8824;-88
2021/12/12 01:14:13;;;;;;;;;14.50;13.25;;;;;-143.39;100.00;63593.47;5044155;28;8821;-88
2021/12/12 01:17:04;;;;;;;;;15.75;11.00;;;;;-143.39;100.00;63593.47;5037719;28;8810;-88
2021/12/12 01:19:33;;;;;;;;;16.50;11.50;;;;;-143.39;100.00;63593.47;5056498;28;8804;-88
2021/12/12 01:22:06;;;;;;;;;12.00;11.25;;;;;-143.39;100.00;63593.47;5057180;28;8882;-89
2021/12/12 01:24:36;;;;;;;;;10.00;10.00;;;;;-143.39;100.00;63593.47;5057272;28;8769;-88
2021/12/12 01:27:04;;;;;;;;;16.25;11.25;;;;;-143.39;100.00;63593.47;5057322;28;9695;-88
2021/12/12 01:29:30;;;;;;;;;20.75;13.75;;;;;15.33;100.00;101806.00;4870025;28;4522736;-88
2021/12/12 01:32:00;;;;;;;;;13.00;10.25;;;;;15.43;100.00;101812.41;5037546;28;28479;-87
2021/12/12 01:34:29;;;;;;;;;12.50;11.50;;;;;15.37;100.00;101818.16;5036765;28;28404;-87
2021/12/12 01:39:33;;;;;;;;;12.50;11.25;;;;;15.47;100.00;101829.00;5036343;28;28327;-87
2021/12/12 01:42:15;;;;;;;;;14.50;9.75;;;;;15.24;100.00;101820.81;5036026;28;29702;-87
2021/12/12 01:44:46;;;;;;;;;14.50;11.00;;;;;15.29;100.00;101823.19;5037542;28;28379;-87
2021/12/12 01:47:28;;;;;;;;;11.75;11.00;;;;;15.27;100.00;101825.09;5036854;28;28437;-86
2021/12/12 01:49:58;;;;;;;;;15.25;11.50;;;;;15.28;100.00;101827.66;5035349;28;28431;-86
2021/12/12 01:52:27;;;;;;;;;14.00;11.50;;;;;15.33;100.00;101832.63;5035142;28;30809;-86
2021/12/12 01:54:58;;;;;;;;;15.00;11.25;;;;;15.35;100.00;101834.25;5035035;28;28843;-86
2021/12/12 01:57:30;;;;;;;;;13.00;9.25;;;;;15.28;100.00;101832.97;5018668;28;28352;-86
2021/12/12 01:59:58;;;;;;;;;12.00;8.00;;;;;15.31;100.00;101842.53;5014873;28;28755;-86
2021/12/12 02:02:28;;;;;;;;;13.25;10.50;;;;;15.28;100.00;101834.78;5015048;28;30142;-87
2021/12/12 02:04:58;;;;;;;;;13.50;9.25;;;;;15.19;100.00;101836.28;5016461;28;28416;-87
2021/12/12 02:07:29;;;;;;;;;15.50;9.75;;;;;15.18;100.00;101839.03;5018384;28;28321;-86
2021/12/12 02:09:59;;;;;;;;;11.50;11.50;;;;;15.20;100.00;101843.31;5036013;28;28448;-86
2021/12/12 02:12:25;;;;;;;;;18.25;11.25;;;;;15.01;100.00;101848.19;5036185;28;29265;-86
2021/12/12 02:14:53;;;;;;;;;16.25;12.00;;;;;15.34;100.00;101848.50;5035859;28;28420;-86
2021/12/12 02:17:42;;;;;;;;;12.50;8.50;;;;;15.54;100.00;101839.16;5036371;28;28520;-86
2021/12/12 02:20:33;;;;;;;;;11.75;7.00;;;;;15.60;100.00;101845.84;5036278;28;28279;-86
2021/12/12 02:23:12;;;;;;;;;11.00;9.75;;;;;15.56;100.00;101841.72;5020458;28;28496;-85
2021/12/12 02:36:48;;;;;;;;;9.75;8.00;;;;;15.45;100.00;101861.06;5027557;28;45231;-86
2021/12/12 02:39:17;;;;;;;;;17.50;11.00;;;;;15.56;100.00;101850.56;5041109;28;44743;-86
2021/12/12 02:41:47;;;;;;;;;14.25;10.50;;;;;15.76;100.00;101858.91;5027663;28;45595;-86
2021/12/12 02:44:13;;;;;;;;;13.00;9.50;;;;;15.61;100.00;101858.19;5029904;28;45061;-85
2021/12/12 02:46:41;;;;;;;;;9.75;9.00;;;;;15.33;100.00;101861.91;5021914;28;28528;-87
2021/12/12 02:49:23;;;;;;;;;9.75;9.75;;;;;15.54;100.00;101856.94;5038783;28;41636;-87
2021/12/12 02:51:49;;;;;;;;;11.00;8.00;;;;;16.07;100.00;101856.59;5020470;28;27966;-87
2021/12/12 02:54:15;;;;;;;;;8.75;7.50;;;;;15.94;100.00;101862.91;5021400;28;29877;-87
2021/12/12 02:56:45;;;;;;;;;11.25;9.75;;;;;15.70;100.00;101862.88;5031788;28;38222;-87
2021/12/12 02:59:15;;;;;;;;;11.00;8.75;;;;;15.48;100.00;101865.31;5035832;28;44522;-86
2021/12/12 03:01:47;;;;;;;;;9.00;9.00;;;;;15.56;100.00;101855.88;5030998;28;45296;-87
2021/12/12 03:04:13;;;;;;;;;9.25;9.25;;;;;16.77;100.00;101855.84;5027042;28;45376;-87
2021/12/12 03:06:41;;;;;;;;;8.75;7.00;;;;;16.61;100.00;101869.50;5019462;28;45193;-87
2021/12/12 03:09:18;;;;;;;;;11.25;10.00;;;;;16.46;100.00;101860.81;4985853;28;45349;-87
2021/12/12 03:11:46;;;;;;;;;9.25;8.00;;;;;16.64;100.00;101865.75;5004879;28;45388;-87
2021/12/12 03:14:11;;;;;;;;;7.25;7.00;;;;;16.63;100.00;101869.41;5017526;28;45479;-87
2021/12/12 03:16:37;;;;;;;;;8.00;7.00;;;;;16.24;100.00;101876.69;5023000;28;45418;-87
2021/12/12 03:19:06;;;;;;;;;7.50;4.25;;;;;16.52;100.00;101866.63;5022930;28;45186;-87
2021/12/12 03:21:37;;;;;;;;;8.00;7.25;;;;;16.61;100.00;101872.16;5011052;28;45505;-88
2021/12/12 03:24:11;;;;;;;;;11.50;9.25;;;;;16.67;100.00;101862.84;5003673;28;45345;-87
2021/12/12 03:26:38;;;;;;;;;11.50;7.25;;;;;16.68;100.00;101865.41;5003609;28;45409;-88
2021/12/12 03:29:05;;;;;;;;;10.75;8.00;;;;;16.84;100.00;101871.28;5003036;28;45232;-87
2021/12/12 03:31:36;;;;;;;;;6.00;6.00;;;;;16.68;100.00;101872.56;5001294;28;45267;-87
2021/12/12 03:34:05;;;;;;;;;8.00;7.00;;;;;16.53;100.00;101866.53;5001148;28;48356;-85
2021/12/12 03:36:31;;;;;;;;;7.00;6.00;;;;;16.08;100.00;101876.09;5007130;28;45397;-85
2021/12/12 03:39:04;;;;;;;;;11.75;9.00;;;;;16.07;100.00;101872.59;5004358;28;45430;-87
2021/12/12 03:41:32;;;;;;;;;8.25;7.50;;;;;15.73;100.00;101873.31;5022828;28;45246;-85
2021/12/12 03:44:03;;;;;;;;;6.00;6.00;;;;;15.65;100.00;101868.53;5022903;28;45423;-85
2021/12/12 03:46:29;;;;;;;;;8.25;7.00;;;;;15.62;100.00;101867.88;5005746;28;45240;-86
2021/12/12 03:48:55;;;;;;;;;8.50;7.00;;;;;15.75;100.00;101866.03;5022449;28;45274;-86
2021/12/12 03:51:24;;;;;;;;;6.75;6.00;;;;;15.73;100.00;101869.78;5022257;28;45548;-86
2021/12/12 03:53:50;;;;;;;;;8.75;7.00;;;;;15.51;100.00;101867.75;5022543;28;46283;-86
2021/12/12 03:56:16;;;;;;;;;7.00;6.50;;;;;15.57;100.00;101867.38;5022139;28;45414;-86
2021/12/12 03:58:43;;;;;;;;;11.75;7.00;;;;;15.40;100.00;101873.81;5020722;28;45380;-86
2021/12/12 04:01:17;;;;;;;;;9.00;7.00;;;;;15.34;100.00;101879.59;5004496;28;45412;-86
2021/12/12 04:03:44;;;;;;;;;7.50;6.25;;;;;15.94;100.00;101868.22;5004068;28;47234;-87
2021/12/12 04:06:14;;;;;;;;;9.50;7.00;;;;;16.19;100.00;101870.00;5022166;28;45727;-86
2021/12/12 04:08:43;;;;;;;;;8.50;8.25;;;;;16.33;100.00;101859.16;5022323;28;45364;-86
2021/12/12 04:11:24;;;;;;;;;9.25;8.00;;;;;16.55;100.00;101874.41;5004443;28;45365;-88
2021/12/12 04:13:52;;;;;;;;;7.50;6.50;;;;;15.52;100.00;101875.63;5014147;28;47312;-88
2021/12/12 04:16:19;;;;;;;;;5.25;3.00;;;;;15.46;100.00;101877.88;5004362;28;45329;-88
2021/12/12 04:18:45;;;;;;;;;12.00;9.00;;;;;15.87;100.00;101880.31;5022360;28;45455;-86
2021/12/12 04:21:12;;;;;;;;;11.75;8.00;;;;;16.33;100.00;101884.00;5020390;28;45163;-86
2021/12/12 04:23:39;;;;;;;;;8.75;8.00;;;;;15.99;100.00;101882.94;5022461;28;46201;-86
2021/12/12 04:26:14;;;;;;;;;10.00;7.00;;;;;16.09;100.00;101883.13;5021944;28;45276;-86
2021/12/12 04:28:41;;;;;;;;;12.25;9.00;;;;;15.91;100.00;101885.31;5020773;28;45471;-88
2021/12/12 04:31:07;;;;;;;;;8.50;8.25;;;;;16.17;100.00;101891.41;5022852;28;45536;-88
2021/12/12 04:33:33;;;;;;;;;8.25;8.00;;;;;16.71;100.00;101885.66;5023053;28;46300;-87
2021/12/12 04:35:58;;;;;;;;;9.00;7.75;;;;;16.51;100.00;101895.13;5021620;28;45450;-87
2021/12/12 04:38:24;;;;;;;;;16.00;9.00;;;;;16.71;100.00;101889.19;5021602;28;45420;-88
2021/12/12 04:40:50;;;;;;;;;13.75;8.25;;;;;16.69;100.00;101893.78;5021794;28;45490;-87
2021/12/12 04:43:16;;;;;;;;;12.75;8.75;;;;;16.75;100.00;101897.81;5021817;28;45360;-87
2021/12/12 04:45:57;;;;;;;;;10.50;8.50;;;;;16.75;100.00;101901.31;5022953;28;45361;-88
2021/12/12 04:51:37;;;;;;;;;11.75;9.00;;;;;16.61;100.00;101885.50;5023965;28;45325;-89
2021/12/12 04:54:21;;;;;;;;;14.00;7.50;;;;;16.57;100.00;101905.31;5008018;28;47034;-87
2021/12/12 04:57:01;;;;;;;;;8.00;8.00;;;;;16.48;100.00;101905.19;5016251;28;45376;-88
2021/12/12 04:59:41;;;;;;;;;14.50;9.50;;;;;16.56;100.00;101902.78;5005589;28;45441;-87
2021/12/12 05:02:18;;;;;;;;;16.00;9.00;;;;;16.76;100.00;101904.84;4983868;28;46408;-87
2021/12/12 05:05:08;;;;;;;;;15.00;11.00;;;;;16.21;100.00;101913.34;5000502;28;46603;-87
2021/12/12 05:07:38;;;;;;;;;18.25;11.25;;;;;16.07;100.00;101911.69;5019106;28;45474;-87
2021/12/12 05:10:21;;;;;;;;;12.75;11.00;;;;;16.78;100.00;101913.56;5019874;28;45353;-87
2021/12/12 05:12:54;;;;;;;;;12.75;9.25;;;;;16.84;100.00;101908.63;5008738;28;45305;-88
2021/12/12 05:15:27;;;;;;;;;15.50;11.00;;;;;17.12;100.00;101912.72;4988398;28;47239;-88
2021/12/12 05:17:59;;;;;;;;;12.50;11.00;;;;;17.10;100.00;101914.69;4984065;28;45509;-88
2021/12/12 05:20:41;;;;;;;;;13.00;11.00;;;;;17.15;100.00;101911.66;5005971;28;45263;-88
2021/12/12 05:23:12;;;;;;;;;16.00;10.00;;;;;17.09;100.00;101920.13;5011620;28;45359;-88
2021/12/12 05:25:49;;;;;;;;;13.25;13.25;;;;;17.58;100.00;101911.81;5011996;28;45432;-87
2021/12/12 05:28:18;;;;;;;;;13.00;13.00;;;;;17.88;100.00;101908.59;4991392;28;45526;-88
2021/12/12 05:30:45;;;;;;;;;19.50;13.50;;;;;17.77;100.00;101917.47;5020098;28;45323;-88
2021/12/12 05:33:13;;;;;;;;;11.75;11.00;;;;;17.84;100.00;101928.53;5034864;28;45188;-88
2021/12/12 05:35:40;;;;;;;;;15.00;13.00;;;;;17.80;100.00;101916.38;5034613;28;46148;-87
2021/12/12 05:38:07;;;;;;;;;12.25;11.00;;;;;17.63;100.00;101925.72;5034514;28;44991;-88
2021/12/12 05:40:35;;;;;;;;;17.50;12.50;;;;;17.76;100.00;101923.78;5010353;28;45186;-88
2021/12/12 05:43:03;;;;;;;;;16.25;13.75;;;;;17.77;100.00;101928.16;5021183;28;45401;-89
2021/12/12 05:45:30;;;;;;;;;18.50;12.00;;;;;17.40;100.00;101926.63;5003288;28;48466;-88
2021/12/12 05:47:56;;;;;;;;;11.50;11.00;;;;;17.63;100.00;101935.56;5021414;28;45750;-88
2021/12/12 05:50:23;;;;;;;;;16.50;12.00;;;;;17.71;100.00;101928.66;5020906;28;45349;-88
2021/12/12 05:52:54;;;;;;;;;18.00;12.00;;;;;17.41;100.00;101939.84;5020776;28;45388;-89
2021/12/12 05:55:20;;;;;;;;;16.50;12.00;;;;;17.30;100.00;101936.34;5018855;28;47209;-88
2021/12/12 05:57:53;;;;;;;;;13.25;10.75;;;;;17.26;100.00;101950.88;5020120;28;45393;-89
2021/12/12 06:00:19;;;;;;;;;15.25;12.00;;;;;17.19;100.00;101934.47;5003107;28;45517;-89
2021/12/12 06:02:45;;;;;;;;;19.50;14.00;;;;;17.39;100.00;101948.97;5019500;28;45909;-88
2021/12/12 06:05:11;;;;;;;;;13.25;11.75;;;;;17.37;100.00;101937.56;5002407;28;47999;-89
2021/12/12 06:07:37;;;;;;;;;14.00;12.75;;;;;17.55;100.00;101941.47;5020360;28;45394;-89
2021/12/12 06:10:07;;;;;;;;;18.00;11.75;;;;;17.52;100.00;101929.19;5020061;28;45467;-88
2021/12/12 06:12:34;;;;;;;;;16.00;13.00;;;;;17.42;100.00;101941.56;5017842;28;45503;-89
2021/12/12 06:15:02;;;;;;;;;15.25;12.50;;;;;17.40;100.00;101948.81;5015643;28;46419;-89
2021/12/12 06:17:29;;;;;;;;;13.25;12.75;;;;;17.26;100.00;101950.88;5002310;28;45266;-89
2021/12/12 06:19:56;;;;;;;;;15.50;11.50;;;;;17.54;100.00;101971.81;5002886;28;45294;-89
2021/12/12 06:22:22;;;;;;;;;15.25;12.75;;;;;17.44;100.00;101961.00;4991913;28;45618;-89
2021/12/12 06:24:48;;;;;;;;;13.00;9.75;;;;;17.26;100.00;101967.75;5002639;28;47042;-89
2021/12/12 06:27:17;;;;;;;;;18.00;12.75;;;;;17.41;100.00;101969.22;5020755;28;45376;-89
2021/12/12 06:29:46;;;;;;;;;18.25;13.75;;;;;17.12;100.00;101960.75;5002891;28;45386;-89
2021/12/12 06:32:12;;;;;;;;;15.50;13.00;;;;;17.28;100.00;101970.31;5022737;28;45250;-88
2021/12/12 06:34:38;;;;;;;;;15.00;11.75;;;;;17.54;100.00;101983.34;5023899;28;45667;-88
2021/12/12 06:37:05;;;;;;;;;17.75;12.75;;;;;16.83;100.00;101972.78;5020819;28;45666;-89
2021/12/12 06:39:31;;;;;;;;;15.25;10.25;;;;;17.65;100.00;101968.34;5023817;28;45408;-89
2021/12/12 06:41:57;;;;;;;;;13.00;10.00;;;;;16.85;100.00;101973.50;5023339;28;45353;-89
2021/12/12 06:44:23;;;;;;;;;9.50;8.00;;;;;18.29;100.00;101977.47;5019125;28;45366;-89
2021/12/12 06:46:50;;;;;;;;;17.50;12.50;;;;;18.32;100.00;101978.06;5020259;28;45305;-89
2021/12/12 06:49:17;;;;;;;;;16.50;10.25;;;;;17.15;100.00;101981.91;5002231;28;45307;-89
2021/12/12 06:51:48;;;;;;;;;12.00;8.00;;;;;18.24;100.00;101987.66;5019986;28;45662;-89
2021/12/12 06:54:16;;;;;;;;;11.25;9.75;;;;;18.42;100.00;101986.19;5020290;28;45423;-89
2021/12/12 06:56:42;;;;;;;;;11.75;8.50;;;;;18.46;100.00;101993.00;5009421;28;45228;-89
2021/12/12 06:59:07;;;;;;;;;10.75;8.00;;;;;18.48;100.00;101998.25;5018326;28;45364;-89
2021/12/12 07:01:34;;;;;;;;;10.25;9.00;;;;;18.42;100.00;101996.03;5019827;28;45452;-89
2021/12/12 07:04:02;;;;;;;;;8.00;7.00;;;;;18.09;100.00;102010.28;5019796;28;45405;-89
2021/12/12 07:06:29;;;;;;;;;7.50;7.50;;;;;18.16;100.00;102001.66;5019894;28;45462;-89
2021/12/12 07:08:58;;;;;;;;;10.00;7.75;;;;;18.16;100.00;102003.47;5019511;28;45183;-89
2021/12/12 07:11:27;;;;;;;;;9.50;7.00;;;;;17.81;100.00;102007.13;5019744;28;45529;-87
2021/12/12 07:13:53;;;;;;;;;12.50;8.75;;;;;17.40;100.00;102012.06;5006929;28;46312;-89
2021/12/12 07:16:22;;;;;;;;;14.75;10.00;;;;;18.03;100.00;102008.13;5012696;28;45287;-90
2021/12/12 07:18:48;;;;;;;;;8.50;7.00;;;;;17.99;100.00;102007.50;5002108;28;45289;-89
2021/12/12 07:21:16;;;;;;;;;13.00;8.00;;;;;17.77;100.00;102013.66;5019986;28;45466;-90
2021/12/12 07:23:43;;;;;;;;;13.00;9.00;;;;;18.06;100.00;102015.88;5001829;28;47179;-89
2021/12/12 07:26:12;;;;;;;;;8.00;7.00;;;;;18.07;100.00;102022.91;5018197;28;45899;-89
2021/12/12 07:28:39;;;;;;;;;12.00;8.25;;;;;18.07;100.00;102017.56;5018495;28;45297;-89
2021/12/12 07:31:11;;;;;;;;;8.75;7.50;;;;;18.08;100.00;102012.13;5001273;28;46240;-88
2021/12/12 07:33:38;;;;;;;;;12.50;7.00;;;;;18.02;100.00;102012.59;5017911;28;46115;-89
2021/12/12 07:36:06;;;;;;;;;8.75;8.25;;;;;18.04;100.00;102017.81;5017691;28;45587;-89
2021/12/12 07:38:33;;;;;;;;;11.25;6.75;;;;;18.03;100.00;102022.31;5000796;28;45434;-89
2021/12/12 07:41:01;;;;;;;;;8.25;6.50;;;;;17.26;100.00;102025.63;5000013;28;45211;-90
2021/12/12 07:43:29;;;;;;;;;7.75;7.00;;;;;17.75;100.00;102017.44;4988763;28;47193;-90
2021/12/12 07:45:56;;;;;;;;;7.25;7.00;;;;;17.87;100.00;102033.34;5019167;28;45529;-90
2021/12/12 07:48:21;;;;;;;;;10.50;7.00;;;;;17.88;100.00;102036.88;5019655;28;45439;-90
2021/12/12 07:50:48;;;;;;;;;10.00;8.75;;;;;18.04;100.00;102037.38;5019132;28;45308;-89
2021/12/12 07:53:14;;;;;;;;;8.75;8.50;;;;;17.94;100.00;102029.22;5019772;28;45332;-90
2021/12/12 07:55:40;;;;;;;;;17.00;6.00;;;;;17.75;100.00;102039.66;5018241;28;45512;-90
2021/12/12 07:58:09;;;;;;;;;8.50;8.00;;;;;18.01;100.00;102052.81;5022977;28;45270;-90
2021/12/12 08:00:36;;;;;;;;;12.00;4.00;;;;;18.14;100.00;102042.84;5022549;28;45434;-90
2021/12/12 08:03:02;;;;;;;;;9.50;9.50;;;;;18.11;100.00;102041.28;5022904;28;45634;-89
2021/12/12 08:05:29;;;;;;;;;10.00;10.00;;;;;18.06;100.00;102043.44;5022957;28;45295;-90
2021/12/12 08:08:01;;;;;;;;;9.00;9.00;;;;;18.36;100.00;102033.97;5004441;28;45342;-90
2021/12/12 08:10:27;;;;;;;;;11.50;8.00;;;;;18.34;100.00;102031.44;5007033;28;45337;-90
2021/12/12 08:12:53;;;;;;;;;13.25;8.00;;;;;18.44;100.00;102040.44;5006962;28;48244;-90
2021/12/12 08:15:20;;;;;;;;;11.75;7.75;;;;;18.50;100.00;102045.28;5021518;28;45324;-91
2021/12/12 08:17:46;;;;;;;;;9.00;7.00;;;;;18.50;100.00;102055.13;5023757;28;45336;-89
2021/12/12 08:20:13;;;;;;;;;9.00;6.75;;;;;18.41;100.00;102047.84;5022598;28;45245;-89
2021/12/12 08:22:40;;;;;;;;;7.00;4.50;;;;;18.48;100.00;102052.56;4996555;28;46978;-89
2021/12/12 08:25:09;;;;;;;;;9.00;6.50;;;;;18.45;100.00;102052.81;5003786;28;45346;-90
2021/12/12 08:27:35;;;;;;;;;8.00;6.50;;;;;18.46;100.00;102045.66;5004242;28;45273;-90
2021/12/12 08:30:01;;;;;;;;;8.00;6.00;;;;;18.53;100.00;102050.38;5006196;28;45314;-89
2021/12/12 08:32:28;;;;;;;;;7.50;6.50;;;;;18.64;100.00;102049.56;4988080;28;47233;-89
2021/12/12 08:34:54;;;;;;;;;9.25;7.50;;;;;18.56;100.00;102055.50;5021439;28;45718;-90
2021/12/12 08:37:19;;;;;;;;;9.25;8.25;;;;;18.62;100.00;102051.50;5034471;28;45249;-90
2021/12/12 08:39:45;;;;;;;;;9.25;7.25;;;;;18.67;100.00;102065.34;5007837;28;45675;-90
2021/12/12 08:42:12;;;;;;;;;10.00;9.00;;;;;18.66;100.00;102069.03;5020695;28;46575;-89
2021/12/12 08:44:38;;;;;;;;;11.00;9.50;;;;;18.73;100.00;102072.91;5021693;28;45261;-90
2021/12/12 08:47:07;;;;;;;;;14.25;13.00;;;;;18.91;100.00;102073.22;5021039;28;45392;-90
2021/12/12 08:49:36;;;;;;;;;14.00;11.50;;;;;18.94;100.00;102067.59;5021569;28;45558;-91
2021/12/12 08:52:11;;;;;;;;;7.25;7.25;;;;;18.88;100.00;102057.41;5021312;28;48329;-90
2021/12/12 08:54:40;;;;;;;;;11.25;8.00;;;;;18.80;100.00;102065.22;5021776;28;45562;-90
2021/12/12 08:57:12;;;;;;;;;7.00;3.00;;;;;18.86;100.00;102062.03;5018630;28;45261;-88
2021/12/12 08:59:45;;;;;;;;;14.25;8.00;;;;;18.99;100.00;102073.44;4983848;28;46137;-88
2021/12/12 09:02:13;;;;;;;;;15.25;8.00;;;;;18.68;100.00;102072.41;4998123;28;48087;-88
2021/12/12 09:04:45;;;;;;;;;7.75;6.50;;;;;18.91;100.00;102076.75;5003084;28;45403;-88
2021/12/12 09:07:18;;;;;;;;;10.00;7.00;;;;;18.86;100.00;102078.94;5021168;28;46679;-88
2021/12/12 09:09:52;;;;;;;;;13.50;9.00;;;;;18.83;100.00;102079.22;5005696;28;45484;-90
2021/12/12 09:12:26;;;;;;;;;12.00;10.75;;;;;19.05;100.00;102078.28;5004554;28;45863;-90
2021/12/12 09:15:07;;;;;;;;;12.25;7.00;;;;;18.93;100.00;102085.53;5021323;28;45336;-89
2021/12/12 09:17:43;;;;;;;;;6.75;5.25;;;;;18.79;100.00;102091.13;5021670;28;45332;-89
2021/12/12 09:20:19;;;;;;;;;9.50;7.00;;;;;18.84;100.00;102088.09;5019423;28;45343;-90
2021/12/12 09:22:58;;;;;;;;;10.00;7.00;;;;;18.50;100.00;102096.09;4983999;28;46278;-89
2021/12/12 09:25:43;;;;;;;;;8.75;8.00;;;;;18.88;100.00;102092.22;5001251;28;45416;-90
2021/12/12 09:28:30;;;;;;;;;7.75;6.50;;;;;18.71;100.00;102088.22;5001556;28;45418;-90
2021/12/12 09:31:05;;;;;;;;;7.00;5.00;;;;;19.53;100.00;102091.31;5001183;28;45535;-88
2021/12/12 09:33:48;;;;;;;;;9.00;8.00;;;;;19.71;100.00;102097.81;5006255;28;45468;-89
2021/12/12 09:36:18;;;;;;;;;10.75;8.25;;;;;19.68;100.00;102088.19;5021139;28;45372;-89
2021/12/12 09:39:05;;;;;;;;;7.25;7.25;;;;;19.71;100.00;102100.47;5015119;28;45338;-89
2021/12/12 09:41:55;;;;;;;;;7.50;6.75;;;;;19.74;100.00;102085.00;5021063;28;45206;-89
2021/12/12 09:44:21;;;;;;;;;8.50;7.50;;;;;19.77;100.00;102097.28;5019303;28;47295;-90
2021/12/12 09:52:50;;;;;;;;;8.25;6.50;;;;;19.89;100.00;102100.75;5020265;28;45388;-90
2021/12/12 09:55:21;;;;;;;;;8.00;7.00;;;;;19.64;100.00;102099.31;5001887;28;47242;-89
2021/12/12 09:57:53;;;;;;;;;15.00;10.25;;;;;19.96;100.00;102100.09;5016954;28;45431;-89
2021/12/12 10:00:41;;;;;;;;;13.25;10.50;;;;;19.87;100.00;102089.28;4999351;28;45403;-90
2021/12/12 10:03:35;;;;;;;;;9.00;8.75;;;;;20.17;100.00;102097.41;5014855;28;45571;-90
2021/12/12 10:06:25;;;;;;;;;14.50;10.00;;;;;20.34;100.00;102102.19;5017765;28;45604;-89
2021/12/12 10:09:04;;;;;;;;;9.00;9.00;;;;;20.42;100.00;102101.50;5019459;28;45494;-90
2021/12/12 10:11:55;;;;;;;;;11.25;9.50;;;;;20.34;100.00;102098.59;5017303;28;45459;-90
2021/12/12 10:14:45;;;;;;;;;13.50;10.00;;;;;20.43;100.00;102105.88;5017377;28;45220;-90
2021/12/12 10:17:21;;;;;;;;;12.50;10.25;;;;;20.49;100.00;102092.78;5017774;28;45510;-90
2021/12/12 10:19:54;;;;;;;;;14.75;12.75;;;;;20.73;100.00;102100.50;5018346;28;45458;-90
2021/12/12 10:22:57;;;;;;;;;23.25;16.25;;;;;20.61;100.00;102095.38;5019873;28;45430;-90
2021/12/12 10:25:33;;;;;;;;;17.00;12.25;;;;;20.54;100.00;102095.06;4995181;28;45345;-90
2021/12/12 10:28:10;;;;;;;;;11.25;11.25;;;;;20.68;100.00;102102.72;5018381;28;46163;-89
2021/12/12 10:30:43;;;;;;;;;11.75;10.00;;;;;20.74;100.00;102093.31;5009777;28;45981;-90
2021/12/12 10:33:16;;;;;;;;;9.50;9.50;;;;;20.76;100.00;102099.41;5019917;28;45479;-89
2021/12/12 10:35:58;;;;;;;;;15.00;11.00;;;;;20.50;100.00;102102.53;5016410;28;45671;-89
2021/12/12 10:38:29;;;;;;;;;10.25;9.00;;;;;20.59;100.00;102089.28;5017716;28;45561;-89
2021/12/12 10:41:05;;;;;;;;;10.25;9.25;;;;;20.68;100.00;102091.16;5001585;28;45453;-90
2021/12/12 10:43:41;;;;;;;;;11.00;10.75;;;;;20.74;100.00;102096.84;5013916;28;45416;-89
2021/12/12 10:46:10;;;;;;;;;13.25;10.75;;;;;20.70;100.00;102094.56;5016915;28;45351;-89
2021/12/12 10:49:18;;;;;;;;;11.25;10.00;;;;;20.91;100.00;102095.31;5016864;28;45308;-89
2021/12/12 10:51:49;;;;;;;;;15.75;12.50;;;;;21.08;100.00;102091.97;4997409;28;47339;-89
2021/12/12 10:54:22;;;;;;;;;11.50;9.25;;;;;20.81;100.00;102102.50;5016880;28;45538;-91
2021/12/12 10:57:00;;;;;;;;;17.00;10.75;;;;;21.41;100.00;102093.44;5012280;28;45369;-90
2021/12/12 10:59:28;;;;;;;;;14.00;10.75;;;;;21.15;100.00;102097.63;5018622;28;45329;-91
2021/12/12 11:01:59;;;;;;;;;14.50;11.25;;;;;21.07;100.00;102092.09;5018912;28;45726;-92
2021/12/12 11:04:33;;;;;;;;;17.50;14.75;;;;;21.54;100.00;102093.16;5011472;28;45353;-91
2021/12/12 11:07:03;;;;;;;;;17.50;13.50;;;;;21.16;100.00;102099.31;4993171;28;45567;-90
2021/12/12 11:09:38;;;;;;;;;19.25;15.25;;;;;21.02;100.00;102105.13;5016058;28;45524;-89
2021/12/12 11:12:26;;;;;;;;;16.25;12.50;;;;;21.16;100.00;102102.00;4992313;28;45462;-89
2021/12/12 11:15:04;;;;;;;;;15.00;11.75;;;;;21.23;100.00;102103.19;5017599;28;45533;-90
2021/12/12 11:17:37;;;;;;;;;10.25;7.75;;;;;21.07;100.00;102092.09;5018482;28;45558;-90
2021/12/12 11:20:16;;;;;;;;;9.00;9.00;;;;;20.86;100.00;102092.19;5018649;28;48122;-89
2021/12/12 11:22:49;;;;;;;;;11.00;9.75;;;;;21.05;99.19;102104.81;5003515;28;45302;-90
2021/12/12 11:25:18;;;;;;;;;13.00;8.50;;;;;20.95;99.95;102101.25;5010074;28;45411;-89
2021/12/12 11:27:54;;;;;;;;;10.75;9.75;;;;;20.75;100.00;102095.88;5017010;28;45558;-89
2021/12/12 11:30:38;;;;;;;;;12.25;10.75;;;;;20.65;100.00;102100.34;5009542;28;47244;-90
2021/12/12 11:33:09;;;;;;;;;10.75;9.00;;;;;20.91;100.00;102109.59;5016245;28;45633;-92
2021/12/12 11:35:37;;;;;;;;;12.50;12.00;;;;;20.76;98.48;102102.09;5020377;28;45280;-89
2021/12/12 11:38:21;;;;;;;;;9.25;8.50;;;;;21.00;98.92;102109.75;5010369;28;45567;-89
2021/12/12 11:41:10;;;;;;;;;11.75;10.75;;;;;21.00;100.00;102107.94;5021022;28;47187;-89
2021/12/12 11:43:48;;;;;;;;;13.00;10.50;;;;;20.81;100.00;102097.97;5022234;28;45733;-89
2021/12/12 11:46:22;;;;;;;;;10.75;10.50;;;;;20.58;100.00;102107.22;5010154;28;45248;-88
2021/12/12 11:48:54;;;;;;;;;14.25;11.50;;;;;20.86;100.00;102098.41;5022115;28;45527;-89